ADC006 SKNV-SKNV
Flight info
| Callsign | ADC006 |
|---|---|
| Flight time | N/A |
| Altitude | 20000 |
| Route | NVA3B NVA W16 GIR W17 ABL W36 NIRSO NIRS3C |
| Aircraft | AT76/M-SKBO/2200 |
Departure
| Time | 2026-04-28 14:59 |
|---|---|
| Airport | Benito Salas Airport (SKNV) |
Arrival
| Time | N/A |
|---|---|
| Airport | Benito Salas Airport (SKNV) |
| Time | Latitude | Longitude | Altitude | Speed | Heading |
|---|---|---|---|---|---|
| 2026-04-28 14:39 | 2.94653 | -75.29355 | 1487 ft | 0 kts | 104° |
| 2026-04-28 14:54 | 2.94655 | -75.29363 | 1487 ft | 2 kts | 104° |
| 2026-04-28 14:55 | 2.94659 | -75.29380 | 1487 ft | 3 kts | 102° |
| 2026-04-28 14:55 | 2.94664 | -75.29400 | 1487 ft | 3 kts | 103° |
| 2026-04-28 14:55 | 2.94669 | -75.29420 | 1487 ft | 3 kts | 104° |
| 2026-04-28 14:55 | 2.94674 | -75.29440 | 1487 ft | 3 kts | 104° |
| 2026-04-28 14:56 | 2.94677 | -75.29454 | 1487 ft | 0 kts | 104° |
| 2026-04-28 14:56 | 2.94664 | -75.29443 | 1487 ft | 9 kts | 175° |
| 2026-04-28 14:56 | 2.94621 | -75.29498 | 1487 ft | 8 kts | 214° |
| 2026-04-28 14:57 | 2.94508 | -75.29531 | 1487 ft | 19 kts | 193° |
| 2026-04-28 14:57 | 2.94407 | -75.29555 | 1487 ft | 26 kts | 185° |
| 2026-04-28 14:57 | 2.94249 | -75.29589 | 1487 ft | 9 kts | 265° |
| 2026-04-28 14:57 | 2.94254 | -75.29600 | 1487 ft | 0 kts | 326° |
| 2026-04-28 14:58 | 2.94256 | -75.29601 | 1487 ft | 1 kts | 333° |
| 2026-04-28 14:58 | 2.94278 | -75.29596 | 1487 ft | 9 kts | 23° |
| 2026-04-28 14:58 | 2.94410 | -75.29556 | 1487 ft | 45 kts | 14° |
| 2026-04-28 14:58 | 2.94971 | -75.29415 | 1488 ft | 116 kts | 14° |
| 2026-04-28 14:59 | 2.95872 | -75.29193 | 1565 ft | 145 kts | 14° |
| 2026-04-28 14:59 | 2.96822 | -75.28952 | 2153 ft | 135 kts | 14° |
| 2026-04-28 14:59 | 2.97737 | -75.28699 | 2497 ft | 139 kts | 17° |
| 2026-04-28 14:59 | 2.98779 | -75.28351 | 2754 ft | 171 kts | 19° |
| 2026-04-28 15:00 | 2.99940 | -75.27930 | 3194 ft | 188 kts | 19° |
| 2026-04-28 15:00 | 3.01212 | -75.27458 | 3522 ft | 203 kts | 20° |
| 2026-04-28 15:00 | 3.02605 | -75.26936 | 3843 ft | 215 kts | 21° |
| 2026-04-28 15:00 | 3.04022 | -75.26403 | 4150 ft | 223 kts | 21° |
| 2026-04-28 15:01 | 3.05505 | -75.25857 | 4457 ft | 229 kts | 20° |
| 2026-04-28 15:01 | 3.07000 | -75.25323 | 4756 ft | 232 kts | 20° |
| 2026-04-28 15:01 | 3.08538 | -75.24783 | 5059 ft | 234 kts | 20° |
| 2026-04-28 15:01 | 3.10088 | -75.24242 | 5361 ft | 236 kts | 19° |
| 2026-04-28 15:02 | 3.11633 | -75.23706 | 5660 ft | 237 kts | 19° |
| 2026-04-28 15:02 | 3.13192 | -75.23166 | 5961 ft | 237 kts | 20° |
| 2026-04-28 15:02 | 3.14764 | -75.22622 | 6265 ft | 237 kts | 20° |
| 2026-04-28 15:02 | 3.16319 | -75.22084 | 6563 ft | 238 kts | 20° |
| 2026-04-28 15:03 | 3.17886 | -75.21541 | 6862 ft | 238 kts | 20° |
| 2026-04-28 15:03 | 3.19461 | -75.20995 | 7163 ft | 239 kts | 20° |
| 2026-04-28 15:03 | 3.21033 | -75.20451 | 7463 ft | 240 kts | 20° |
| 2026-04-28 15:03 | 3.22612 | -75.19904 | 7764 ft | 240 kts | 20° |
| 2026-04-28 15:04 | 3.24185 | -75.19360 | 8062 ft | 241 kts | 20° |
| 2026-04-28 15:04 | 3.25760 | -75.18815 | 8362 ft | 241 kts | 20° |
| 2026-04-28 15:04 | 3.27361 | -75.18260 | 8665 ft | 241 kts | 20° |
| 2026-04-28 15:04 | 3.28937 | -75.17714 | 8963 ft | 241 kts | 20° |
| 2026-04-28 15:05 | 3.30523 | -75.17165 | 9262 ft | 242 kts | 20° |
| 2026-04-28 15:05 | 3.32124 | -75.16611 | 9565 ft | 242 kts | 20° |
| 2026-04-28 15:05 | 3.33703 | -75.16064 | 9863 ft | 242 kts | 20° |
| 2026-04-28 15:05 | 3.35286 | -75.15516 | 10159 ft | 243 kts | 20° |
| 2026-04-28 15:06 | 3.36895 | -75.14958 | 10462 ft | 243 kts | 20° |
| 2026-04-28 15:06 | 3.38494 | -75.14404 | 10761 ft | 244 kts | 20° |
| 2026-04-28 15:06 | 3.40091 | -75.13851 | 11060 ft | 244 kts | 20° |
| 2026-04-28 15:06 | 3.41715 | -75.13289 | 11363 ft | 245 kts | 20° |
| 2026-04-28 15:07 | 3.43320 | -75.12733 | 11662 ft | 245 kts | 20° |
| 2026-04-28 15:07 | 3.44925 | -75.12177 | 11961 ft | 246 kts | 20° |
| 2026-04-28 15:07 | 3.46539 | -75.11618 | 12260 ft | 246 kts | 20° |
| 2026-04-28 15:07 | 3.48167 | -75.11054 | 12562 ft | 246 kts | 20° |
| 2026-04-28 15:08 | 3.49787 | -75.10493 | 12863 ft | 246 kts | 20° |
| 2026-04-28 15:08 | 3.51417 | -75.09928 | 13164 ft | 247 kts | 20° |
| 2026-04-28 15:08 | 3.53011 | -75.09377 | 13459 ft | 247 kts | 21° |
| 2026-04-28 15:08 | 3.54650 | -75.08809 | 13762 ft | 247 kts | 21° |
| 2026-04-28 15:09 | 3.56274 | -75.08246 | 14061 ft | 247 kts | 21° |
| 2026-04-28 15:09 | 3.57908 | -75.07680 | 14362 ft | 248 kts | 21° |
| 2026-04-28 15:09 | 3.59556 | -75.07109 | 14668 ft | 248 kts | 21° |
| 2026-04-28 15:09 | 3.60638 | -75.06734 | 14868 ft | 247 kts | 21° |
| 2026-04-28 15:10 | 3.62793 | -75.05987 | 15266 ft | 247 kts | 21° |
| 2026-04-28 15:10 | 3.64404 | -75.05428 | 15565 ft | 246 kts | 21° |
| 2026-04-28 15:10 | 3.66041 | -75.04861 | 15868 ft | 246 kts | 21° |
| 2026-04-28 15:10 | 3.67652 | -75.04302 | 16167 ft | 246 kts | 21° |
| 2026-04-28 15:11 | 3.69280 | -75.03738 | 16468 ft | 246 kts | 21° |
| 2026-04-28 15:11 | 3.70884 | -75.03183 | 16761 ft | 247 kts | 21° |
| 2026-04-28 15:11 | 3.72524 | -75.02614 | 17064 ft | 248 kts | 22° |
| 2026-04-28 15:11 | 3.74147 | -75.02052 | 17362 ft | 249 kts | 22° |
| 2026-04-28 15:12 | 3.75788 | -75.01482 | 17662 ft | 250 kts | 22° |
| 2026-04-28 15:12 | 3.77445 | -75.00907 | 17964 ft | 251 kts | 22° |
| 2026-04-28 15:12 | 3.79099 | -75.00330 | 18276 ft | 250 kts | 20° |
| 2026-04-28 15:12 | 3.80734 | -74.99760 | 18575 ft | 250 kts | 19° |
| 2026-04-28 15:13 | 3.82381 | -74.99188 | 18875 ft | 250 kts | 19° |
| 2026-04-28 15:13 | 3.84049 | -74.98612 | 19178 ft | 250 kts | 19° |
| 2026-04-28 15:13 | 3.85682 | -74.98050 | 19475 ft | 251 kts | 19° |
| 2026-04-28 15:13 | 3.87331 | -74.97484 | 19775 ft | 251 kts | 19° |
| 2026-04-28 15:14 | 3.88997 | -74.96913 | 20078 ft | 251 kts | 19° |
| 2026-04-28 15:14 | 3.90641 | -74.96350 | 20375 ft | 251 kts | 19° |
| 2026-04-28 15:14 | 3.92295 | -74.95783 | 20675 ft | 251 kts | 19° |
| 2026-04-28 15:14 | 3.93961 | -74.95212 | 20976 ft | 252 kts | 19° |
| 2026-04-28 15:15 | 3.95624 | -74.94643 | 21276 ft | 252 kts | 19° |
| 2026-04-28 15:15 | 3.96725 | -74.94265 | 21475 ft | 252 kts | 19° |
| 2026-04-28 15:15 | 3.98392 | -74.93695 | 21759 ft | 254 kts | 19° |
| 2026-04-28 15:15 | 4.00077 | -74.93117 | 21902 ft | 261 kts | 19° |
| 2026-04-28 15:16 | 4.01819 | -74.92521 | 21941 ft | 270 kts | 19° |
| 2026-04-28 15:16 | 4.03633 | -74.91900 | 21945 ft | 278 kts | 19° |
| 2026-04-28 15:16 | 4.05476 | -74.91269 | 21947 ft | 284 kts | 19° |
| 2026-04-28 15:16 | 4.07356 | -74.90625 | 21950 ft | 287 kts | 19° |
| 2026-04-28 15:17 | 4.09255 | -74.89974 | 21949 ft | 290 kts | 19° |
| 2026-04-28 15:17 | 4.11171 | -74.89317 | 21947 ft | 291 kts | 19° |
| 2026-04-28 15:17 | 4.13104 | -74.88655 | 21946 ft | 292 kts | 19° |
| 2026-04-28 15:17 | 4.15006 | -74.88003 | 21942 ft | 293 kts | 19° |
| 2026-04-28 15:18 | 4.16950 | -74.87391 | 21940 ft | 293 kts | 16° |
| 2026-04-28 15:18 | 4.18922 | -74.86878 | 21939 ft | 293 kts | 13° |
| 2026-04-28 15:18 | 4.20919 | -74.86431 | 21939 ft | 293 kts | 12° |
| 2026-04-28 15:18 | 4.22914 | -74.86031 | 21941 ft | 293 kts | 11° |
| 2026-04-28 15:19 | 4.24923 | -74.85657 | 21946 ft | 293 kts | 10° |
| 2026-04-28 15:19 | 4.26934 | -74.85301 | 21947 ft | 293 kts | 10° |
| 2026-04-28 15:19 | 4.28937 | -74.84958 | 21946 ft | 293 kts | 9° |
| 2026-04-28 15:19 | 4.30956 | -74.84618 | 21945 ft | 293 kts | 9° |
| 2026-04-28 15:20 | 4.32984 | -74.84281 | 21941 ft | 293 kts | 9° |
| 2026-04-28 15:20 | 4.34975 | -74.83951 | 21940 ft | 293 kts | 9° |
| 2026-04-28 15:20 | 4.37001 | -74.83617 | 21939 ft | 293 kts | 9° |
| 2026-04-28 15:20 | 4.39007 | -74.83286 | 21939 ft | 293 kts | 9° |
| 2026-04-28 15:21 | 4.41027 | -74.82952 | 21944 ft | 293 kts | 9° |
| 2026-04-28 15:21 | 4.43035 | -74.82620 | 21949 ft | 293 kts | 9° |
| 2026-04-28 15:21 | 4.45043 | -74.82288 | 21949 ft | 292 kts | 9° |
| 2026-04-28 15:21 | 4.47068 | -74.81953 | 21949 ft | 293 kts | 9° |
| 2026-04-28 15:22 | 4.49057 | -74.81623 | 21947 ft | 293 kts | 9° |
| 2026-04-28 15:22 | 4.51082 | -74.81287 | 21943 ft | 293 kts | 9° |
| 2026-04-28 15:22 | 4.53091 | -74.80954 | 21942 ft | 293 kts | 9° |
| 2026-04-28 15:22 | 4.55102 | -74.80620 | 21941 ft | 293 kts | 9° |
| 2026-04-28 15:23 | 4.57116 | -74.80286 | 21941 ft | 293 kts | 9° |
| 2026-04-28 15:23 | 4.59130 | -74.79951 | 21946 ft | 293 kts | 9° |
| 2026-04-28 15:23 | 4.61152 | -74.79616 | 21948 ft | 292 kts | 9° |
| 2026-04-28 15:23 | 4.63137 | -74.79286 | 21949 ft | 292 kts | 9° |
| 2026-04-28 15:24 | 4.65138 | -74.78953 | 21948 ft | 292 kts | 9° |
| 2026-04-28 15:24 | 4.67155 | -74.78618 | 21946 ft | 293 kts | 9° |
| 2026-04-28 15:24 | 4.69179 | -74.78282 | 21943 ft | 293 kts | 9° |
| 2026-04-28 15:24 | 4.71187 | -74.77948 | 21942 ft | 293 kts | 9° |
| 2026-04-28 15:25 | 4.73193 | -74.77615 | 21941 ft | 293 kts | 9° |
| 2026-04-28 15:25 | 4.75208 | -74.77326 | 21938 ft | 293 kts | 2° |
| 2026-04-28 15:25 | 4.77212 | -74.77653 | 21941 ft | 292 kts | 340° |
| 2026-04-28 15:25 | 4.78995 | -74.78590 | 21951 ft | 292 kts | 327° |
| 2026-04-28 15:26 | 4.80616 | -74.79834 | 21950 ft | 293 kts | 320° |
| 2026-04-28 15:26 | 4.82115 | -74.81219 | 21948 ft | 293 kts | 316° |
| 2026-04-28 15:26 | 4.83552 | -74.82684 | 21946 ft | 293 kts | 314° |
| 2026-04-28 15:26 | 4.84937 | -74.84171 | 21944 ft | 293 kts | 313° |
| 2026-04-28 15:27 | 4.86306 | -74.85682 | 21943 ft | 293 kts | 312° |
| 2026-04-28 15:27 | 4.87672 | -74.87211 | 21942 ft | 293 kts | 312° |
| 2026-04-28 15:27 | 4.89023 | -74.88734 | 21942 ft | 293 kts | 311° |
| 2026-04-28 15:27 | 4.90388 | -74.90277 | 21942 ft | 293 kts | 311° |
| 2026-04-28 15:28 | 4.91739 | -74.91806 | 21942 ft | 293 kts | 311° |
| 2026-04-28 15:28 | 4.93095 | -74.93340 | 21943 ft | 293 kts | 311° |
| 2026-04-28 15:28 | 4.94438 | -74.94860 | 21945 ft | 293 kts | 311° |
| 2026-04-28 15:28 | 4.95799 | -74.96400 | 21946 ft | 293 kts | 311° |
| 2026-04-28 15:29 | 4.97148 | -74.97926 | 21947 ft | 293 kts | 311° |
| 2026-04-28 15:29 | 4.98491 | -74.99445 | 21949 ft | 293 kts | 311° |
| 2026-04-28 15:29 | 4.99854 | -75.00986 | 21952 ft | 293 kts | 312° |
| 2026-04-28 15:29 | 5.01216 | -75.02526 | 21957 ft | 293 kts | 312° |
| 2026-04-28 15:30 | 5.02560 | -75.04047 | 21958 ft | 293 kts | 312° |
| 2026-04-28 15:30 | 5.03917 | -75.05580 | 21958 ft | 293 kts | 312° |
| 2026-04-28 15:30 | 5.05268 | -75.07108 | 21959 ft | 293 kts | 312° |
| 2026-04-28 15:30 | 5.06616 | -75.08632 | 21959 ft | 293 kts | 312° |
| 2026-04-28 15:31 | 5.07970 | -75.10163 | 21959 ft | 294 kts | 312° |
| 2026-04-28 15:31 | 5.09342 | -75.11715 | 21959 ft | 294 kts | 312° |
| 2026-04-28 15:31 | 5.10694 | -75.13244 | 21959 ft | 294 kts | 312° |
| 2026-04-28 15:31 | 5.12049 | -75.14777 | 21958 ft | 294 kts | 312° |
| 2026-04-28 15:32 | 5.13406 | -75.16313 | 21957 ft | 294 kts | 312° |
| 2026-04-28 15:32 | 5.14759 | -75.17843 | 21957 ft | 294 kts | 312° |
| 2026-04-28 15:32 | 5.16116 | -75.19376 | 21956 ft | 294 kts | 312° |
| 2026-04-28 15:32 | 5.17465 | -75.20901 | 21955 ft | 294 kts | 311° |
| 2026-04-28 15:33 | 5.18831 | -75.22446 | 21954 ft | 294 kts | 312° |
| 2026-04-28 15:33 | 5.20179 | -75.23970 | 21955 ft | 294 kts | 311° |
| 2026-04-28 15:33 | 5.21537 | -75.25505 | 21951 ft | 294 kts | 311° |
| 2026-04-28 15:33 | 5.22900 | -75.27047 | 21948 ft | 294 kts | 311° |
| 2026-04-28 15:34 | 5.24243 | -75.28567 | 21947 ft | 294 kts | 311° |
| 2026-04-28 15:34 | 5.25606 | -75.30108 | 21946 ft | 294 kts | 311° |
| 2026-04-28 15:34 | 5.26958 | -75.31639 | 21885 ft | 296 kts | 311° |
| 2026-04-28 15:34 | 5.28329 | -75.33191 | 21635 ft | 302 kts | 312° |
| 2026-04-28 15:35 | 5.29756 | -75.34807 | 21278 ft | 310 kts | 312° |
| 2026-04-28 15:35 | 5.32897 | -75.37843 | 20530 ft | 319 kts | 329° |
| 2026-04-28 15:35 | 5.34914 | -75.38771 | 20164 ft | 322 kts | 340° |
| 2026-04-28 15:36 | 5.37072 | -75.39385 | 19794 ft | 324 kts | 347° |
| 2026-04-28 15:36 | 5.39295 | -75.39798 | 19420 ft | 325 kts | 351° |
| 2026-04-28 15:36 | 5.41537 | -75.40085 | 19047 ft | 326 kts | 354° |
| 2026-04-28 15:36 | 5.43799 | -75.40298 | 18672 ft | 326 kts | 355° |
| 2026-04-28 15:37 | 5.46078 | -75.40469 | 18293 ft | 326 kts | 357° |
| 2026-04-28 15:37 | 5.48329 | -75.40614 | 17919 ft | 325 kts | 358° |
| 2026-04-28 15:37 | 5.50571 | -75.40744 | 17428 ft | 327 kts | 358° |
| 2026-04-28 15:37 | 5.52092 | -75.40828 | 17013 ft | 320 kts | 358° |
| 2026-04-28 15:38 | 5.55007 | -75.40985 | 16181 ft | 311 kts | 358° |
| 2026-04-28 15:38 | 5.57148 | -75.41098 | 15555 ft | 306 kts | 358° |
| 2026-04-28 15:38 | 5.59264 | -75.41211 | 14927 ft | 302 kts | 358° |
| 2026-04-28 15:38 | 5.61357 | -75.41322 | 14298 ft | 299 kts | 358° |
| 2026-04-28 15:39 | 5.63427 | -75.41433 | 13671 ft | 298 kts | 357° |
| 2026-04-28 15:39 | 5.65511 | -75.41545 | 13044 ft | 299 kts | 357° |
| 2026-04-28 15:39 | 5.67562 | -75.41657 | 12427 ft | 299 kts | 357° |
| 2026-04-28 15:39 | 5.69660 | -75.41773 | 11796 ft | 298 kts | 357° |
| 2026-04-28 15:40 | 5.71730 | -75.41889 | 11171 ft | 297 kts | 357° |
| 2026-04-28 15:40 | 5.73783 | -75.42002 | 10548 ft | 296 kts | 357° |
| 2026-04-28 15:40 | 5.75841 | -75.42078 | 10023 ft | 291 kts | 359° |
| 2026-04-28 15:40 | 5.77768 | -75.42115 | 10031 ft | 270 kts | 359° |
| 2026-04-28 15:41 | 5.79605 | -75.42136 | 10044 ft | 253 kts | 0° |
| 2026-04-28 15:41 | 5.81318 | -75.42137 | 10165 ft | 239 kts | 0° |
| 2026-04-28 15:41 | 5.82784 | -75.42124 | 10805 ft | 189 kts | 1° |
| 2026-04-28 15:41 | 5.84045 | -75.42109 | 11269 ft | 179 kts | 1° |
| 2026-04-28 15:42 | 5.85315 | -75.42093 | 11461 ft | 187 kts | 1° |
| 2026-04-28 15:42 | 5.86645 | -75.42081 | 11530 ft | 197 kts | 0° |
| 2026-04-28 15:42 | 5.88048 | -75.42078 | 11608 ft | 202 kts | 0° |
| 2026-04-28 15:42 | 5.89468 | -75.42086 | 11748 ft | 203 kts | 359° |
| 2026-04-28 15:43 | 5.90872 | -75.42102 | 11933 ft | 201 kts | 359° |
| 2026-04-28 15:43 | 5.92256 | -75.42121 | 12127 ft | 200 kts | 359° |
| 2026-04-28 15:43 | 5.93655 | -75.42142 | 12311 ft | 200 kts | 359° |
| 2026-04-28 15:43 | 5.95048 | -75.42161 | 12479 ft | 201 kts | 359° |
| 2026-04-28 15:44 | 5.96457 | -75.42177 | 12639 ft | 202 kts | 359° |
| 2026-04-28 15:44 | 5.97899 | -75.42189 | 12454 ft | 219 kts | 359° |
| 2026-04-28 15:44 | 5.99537 | -75.42202 | 11706 ft | 245 kts | 359° |
| 2026-04-28 15:44 | 6.01262 | -75.42219 | 11116 ft | 244 kts | 359° |
| 2026-04-28 15:45 | 6.02675 | -75.42232 | 10786 ft | 182 kts | 360° |
| 2026-04-28 15:45 | 6.03950 | -75.42241 | 9833 ft | 185 kts | 0° |
| 2026-04-28 15:45 | 6.05165 | -75.42247 | 9702 ft | 158 kts | 0° |
| 2026-04-28 15:45 | 6.06204 | -75.42252 | 9856 ft | 147 kts | 0° |
| 2026-04-28 15:46 | 6.07226 | -75.42254 | 9961 ft | 146 kts | 0° |
| 2026-04-28 15:46 | 6.08265 | -75.42256 | 9796 ft | 158 kts | 0° |
| 2026-04-28 15:46 | 6.09389 | -75.42261 | 9415 ft | 160 kts | 0° |
| 2026-04-28 15:46 | 6.10465 | -75.42269 | 8991 ft | 151 kts | 0° |
| 2026-04-28 15:47 | 6.11508 | -75.42277 | 8583 ft | 148 kts | 0° |
| 2026-04-28 15:47 | 6.12527 | -75.42284 | 8152 ft | 143 kts | 0° |
| 2026-04-28 15:47 | 6.13529 | -75.42291 | 7541 ft | 147 kts | 0° |
| 2026-04-28 15:47 | 6.14548 | -75.42303 | 7083 ft | 141 kts | 1° |
| 2026-04-28 15:48 | 6.15432 | -75.42305 | 7041 ft | 113 kts | 1° |
| 2026-04-28 15:48 | 6.16044 | -75.42302 | 7029 ft | 44 kts | 356° |
| 2026-04-28 15:48 | 6.16104 | -75.42308 | 7029 ft | 6 kts | 357° |
| 2026-04-28 15:48 | 6.16180 | -75.42314 | 7029 ft | 16 kts | 353° |
| 2026-04-28 15:49 | 6.16242 | -75.42382 | 7029 ft | 14 kts | 259° |
| 2026-04-28 15:49 | 6.16258 | -75.42466 | 7029 ft | 12 kts | 322° |
| 2026-04-28 15:49 | 6.16338 | -75.42482 | 7029 ft | 7 kts | 359° |
| 2026-04-28 15:49 | 6.16430 | -75.42483 | 7029 ft | 18 kts | 0° |
| 2026-04-28 15:50 | 6.16546 | -75.42483 | 7029 ft | 14 kts | 0° |
| 2026-04-28 15:50 | 6.16653 | -75.42483 | 7029 ft | 16 kts | 360° |
| 2026-04-28 15:50 | 6.16741 | -75.42484 | 7029 ft | 21 kts | 360° |
| 2026-04-28 15:50 | 6.16875 | -75.42493 | 7029 ft | 11 kts | 330° |
| 2026-04-28 15:51 | 6.16969 | -75.42555 | 7029 ft | 20 kts | 326° |
| 2026-04-28 15:51 | 6.17028 | -75.42627 | 7029 ft | 11 kts | 289° |
| 2026-04-28 15:51 | 6.17051 | -75.42684 | 7029 ft | 8 kts | 291° |
| 2026-04-28 15:51 | 6.17056 | -75.42695 | 7029 ft | 0 kts | 293° |
| 2026-04-28 16:05 | 6.17050 | -75.42682 | 7029 ft | 3 kts | 293° |
| 2026-04-28 16:05 | 6.17043 | -75.42664 | 7029 ft | 3 kts | 293° |
| 2026-04-28 16:05 | 6.17035 | -75.42646 | 7029 ft | 3 kts | 293° |
| 2026-04-28 16:05 | 6.17027 | -75.42626 | 7029 ft | 3 kts | 293° |
| 2026-04-28 16:06 | 6.17021 | -75.42612 | 7029 ft | 0 kts | 293° |
| 2026-04-28 16:06 | 6.17022 | -75.42615 | 7029 ft | 3 kts | 306° |
| 2026-04-28 16:06 | 6.17103 | -75.42625 | 7029 ft | 11 kts | 0° |
| 2026-04-28 16:06 | 6.17210 | -75.42622 | 7029 ft | 23 kts | 360° |
| 2026-04-28 16:07 | 6.17352 | -75.42618 | 7029 ft | 25 kts | 18° |
| 2026-04-28 16:07 | 6.17505 | -75.42529 | 7029 ft | 22 kts | 37° |
| 2026-04-28 16:07 | 6.17741 | -75.42491 | 7029 ft | 11 kts | 358° |
| 2026-04-28 16:08 | 6.17853 | -75.42492 | 7029 ft | 10 kts | 0° |
| 2026-04-28 16:08 | 6.17948 | -75.42492 | 7029 ft | 17 kts | 0° |
| 2026-04-28 16:08 | 6.18019 | -75.42456 | 7029 ft | 11 kts | 84° |
| 2026-04-28 16:09 | 6.17996 | -75.42325 | 7029 ft | 9 kts | 182° |
| 2026-04-28 16:09 | 6.17766 | -75.42323 | 7029 ft | 68 kts | 179° |
| 2026-04-28 16:09 | 6.17067 | -75.42318 | 7030 ft | 128 kts | 180° |
| 2026-04-28 16:10 | 6.14910 | -75.42296 | 7320 ft | 179 kts | 179° |
| 2026-04-28 16:10 | 6.13662 | -75.42280 | 8005 ft | 177 kts | 179° |
| 2026-04-28 16:10 | 6.11019 | -75.42287 | 8849 ft | 207 kts | 179° |
| 2026-04-28 16:11 | 6.07996 | -75.42267 | 9475 ft | 226 kts | 179° |
| 2026-04-28 16:11 | 6.04781 | -75.42235 | 10085 ft | 232 kts | 179° |
| 2026-04-28 16:12 | 6.01553 | -75.42198 | 10685 ft | 234 kts | 179° |
| 2026-04-28 16:12 | 5.99913 | -75.42176 | 10987 ft | 234 kts | 179° |
| 2026-04-28 16:13 | 5.96655 | -75.42125 | 11587 ft | 235 kts | 179° |
| 2026-04-28 16:13 | 5.95013 | -75.42095 | 11888 ft | 235 kts | 179° |
| 2026-04-28 16:13 | 5.91734 | -75.42028 | 12490 ft | 235 kts | 179° |
| 2026-04-28 16:14 | 5.88454 | -75.41949 | 13090 ft | 236 kts | 179° |
| 2026-04-28 16:14 | 5.85187 | -75.41649 | 13690 ft | 237 kts | 167° |
| 2026-04-28 16:15 | 5.83595 | -75.41186 | 13994 ft | 238 kts | 163° |
| 2026-04-28 16:17 | 5.82419 | -75.40795 | 14218 ft | 238 kts | 162° |
| 2026-04-28 16:17 | 5.80871 | -75.40207 | 14513 ft | 240 kts | 156° |
| 2026-04-28 16:17 | 5.80159 | -75.39812 | 14666 ft | 239 kts | 148° |
| 2026-04-28 16:17 | 5.79783 | -75.39579 | 14750 ft | 239 kts | 147° |
| 2026-04-28 16:18 | 5.78410 | -75.38649 | 15053 ft | 238 kts | 144° |
| 2026-04-28 16:18 | 5.77066 | -75.37683 | 15353 ft | 238 kts | 143° |
| 2026-04-28 16:18 | 5.75714 | -75.36691 | 15656 ft | 238 kts | 143° |
| 2026-04-28 16:18 | 5.74390 | -75.35713 | 15954 ft | 238 kts | 143° |
| 2026-04-28 16:19 | 5.73055 | -75.34721 | 16255 ft | 238 kts | 143° |
| 2026-04-28 16:19 | 5.71710 | -75.33716 | 16558 ft | 238 kts | 143° |
| 2026-04-28 16:19 | 5.70562 | -75.32855 | 16818 ft | 238 kts | 143° |
| 2026-04-28 16:19 | 5.69248 | -75.31867 | 17115 ft | 238 kts | 143° |
| 2026-04-28 16:20 | 5.67905 | -75.30854 | 17419 ft | 239 kts | 143° |
| 2026-04-28 16:20 | 5.66586 | -75.29856 | 17718 ft | 239 kts | 143° |
| 2026-04-28 16:20 | 5.65246 | -75.28841 | 17916 ft | 244 kts | 143° |
| 2026-04-28 16:20 | 5.63866 | -75.27793 | 17989 ft | 252 kts | 143° |
| 2026-04-28 16:21 | 5.62485 | -75.26744 | 18003 ft | 260 kts | 143° |
| 2026-04-28 16:21 | 5.61012 | -75.25648 | 17994 ft | 269 kts | 142° |
| 2026-04-28 16:21 | 5.59470 | -75.24531 | 17989 ft | 276 kts | 142° |
| 2026-04-28 16:21 | 5.57914 | -75.23416 | 17986 ft | 280 kts | 143° |
| 2026-04-28 16:22 | 5.56307 | -75.22266 | 17978 ft | 285 kts | 143° |
| 2026-04-28 16:22 | 5.54683 | -75.21100 | 17975 ft | 287 kts | 143° |
| 2026-04-28 16:22 | 5.53054 | -75.19930 | 17975 ft | 288 kts | 143° |
| 2026-04-28 16:22 | 5.51420 | -75.18757 | 17975 ft | 289 kts | 143° |
| 2026-04-28 16:23 | 5.49788 | -75.17586 | 17974 ft | 289 kts | 143° |
| 2026-04-28 16:23 | 5.48160 | -75.16417 | 17974 ft | 289 kts | 143° |
| 2026-04-28 16:23 | 5.46518 | -75.15236 | 17972 ft | 290 kts | 143° |
| 2026-04-28 16:23 | 5.45425 | -75.14449 | 17971 ft | 290 kts | 143° |
| 2026-04-28 16:24 | 5.43773 | -75.13250 | 17965 ft | 291 kts | 143° |
| 2026-04-28 16:24 | 5.42134 | -75.12040 | 17960 ft | 292 kts | 143° |
| 2026-04-28 16:24 | 5.40500 | -75.10827 | 17959 ft | 292 kts | 142° |
| 2026-04-28 16:24 | 5.38879 | -75.09625 | 17960 ft | 292 kts | 143° |
| 2026-04-28 16:25 | 5.37248 | -75.08416 | 17959 ft | 292 kts | 143° |
| 2026-04-28 16:25 | 5.35604 | -75.07195 | 17959 ft | 292 kts | 143° |
| 2026-04-28 16:25 | 5.34512 | -75.06383 | 17959 ft | 292 kts | 143° |
| 2026-04-28 16:25 | 5.32354 | -75.04743 | 17959 ft | 292 kts | 140° |
| 2026-04-28 16:26 | 5.30839 | -75.03381 | 17960 ft | 292 kts | 136° |
| 2026-04-28 16:26 | 5.29382 | -75.01963 | 17960 ft | 292 kts | 134° |
| 2026-04-28 16:26 | 5.27960 | -75.00540 | 17960 ft | 292 kts | 134° |
| 2026-04-28 16:26 | 5.26519 | -74.99079 | 17958 ft | 292 kts | 134° |
| 2026-04-28 16:27 | 5.25101 | -74.97621 | 17954 ft | 292 kts | 133° |
| 2026-04-28 16:27 | 5.23732 | -74.96142 | 17953 ft | 291 kts | 131° |
| 2026-04-28 16:27 | 5.21045 | -74.93102 | 17953 ft | 291 kts | 131° |
| 2026-04-28 16:28 | 5.19696 | -74.91558 | 17953 ft | 291 kts | 131° |
| 2026-04-28 16:28 | 5.18148 | -74.90275 | 17953 ft | 291 kts | 148° |
| 2026-04-28 16:28 | 5.16346 | -74.89363 | 17958 ft | 291 kts | 156° |
| 2026-04-28 16:28 | 5.14447 | -74.88596 | 17886 ft | 294 kts | 159° |
| 2026-04-28 16:29 | 5.10544 | -74.87184 | 17562 ft | 300 kts | 160° |
| 2026-04-28 16:29 | 5.06582 | -74.85799 | 17228 ft | 301 kts | 160° |
| 2026-04-28 16:30 | 5.04608 | -74.85112 | 17061 ft | 301 kts | 160° |
| 2026-04-28 16:30 | 5.02629 | -74.84424 | 16894 ft | 301 kts | 161° |
| 2026-04-28 16:30 | 5.00659 | -74.83739 | 16727 ft | 301 kts | 160° |
| 2026-04-28 16:30 | 4.98675 | -74.83049 | 16560 ft | 301 kts | 160° |
| 2026-04-28 16:31 | 4.96693 | -74.82360 | 16392 ft | 301 kts | 160° |
| 2026-04-28 16:31 | 4.94703 | -74.81668 | 16223 ft | 301 kts | 160° |
| 2026-04-28 16:31 | 4.92725 | -74.80980 | 16055 ft | 300 kts | 160° |
| 2026-04-28 16:31 | 4.90806 | -74.80313 | 15892 ft | 300 kts | 161° |
| 2026-04-28 16:32 | 4.88787 | -74.79610 | 15721 ft | 300 kts | 160° |
| 2026-04-28 16:32 | 4.84845 | -74.78279 | 15386 ft | 299 kts | 163° |
| 2026-04-28 16:32 | 4.82821 | -74.77748 | 15219 ft | 299 kts | 166° |
| 2026-04-28 16:33 | 4.80802 | -74.77276 | 15084 ft | 298 kts | 167° |
| 2026-04-28 16:33 | 4.79472 | -74.76978 | 15032 ft | 296 kts | 167° |
| 2026-04-28 16:33 | 4.76788 | -74.76380 | 15002 ft | 292 kts | 166° |
| 2026-04-28 16:33 | 4.74963 | -74.75535 | 14901 ft | 292 kts | 144° |
| 2026-04-28 16:34 | 4.73571 | -74.74044 | 14495 ft | 300 kts | 122° |
| 2026-04-28 16:34 | 4.72837 | -74.72071 | 14046 ft | 304 kts | 99° |
| 2026-04-28 16:34 | 4.72832 | -74.69946 | 13612 ft | 306 kts | 84° |
| 2026-04-28 16:34 | 4.73189 | -74.67851 | 13170 ft | 307 kts | 77° |
| 2026-04-28 16:35 | 4.73691 | -74.65763 | 12720 ft | 307 kts | 75° |
| 2026-04-28 16:35 | 4.74243 | -74.63706 | 12272 ft | 307 kts | 74° |
| 2026-04-28 16:35 | 4.74820 | -74.61648 | 12066 ft | 300 kts | 73° |
| 2026-04-28 16:35 | 4.75380 | -74.59682 | 12012 ft | 292 kts | 73° |
| 2026-04-28 16:36 | 4.75941 | -74.57723 | 12001 ft | 286 kts | 73° |
| 2026-04-28 16:36 | 4.76483 | -74.55839 | 12000 ft | 282 kts | 73° |
| 2026-04-28 16:36 | 4.77025 | -74.53957 | 12000 ft | 280 kts | 73° |
| 2026-04-28 16:36 | 4.77576 | -74.52082 | 11999 ft | 279 kts | 72° |
| 2026-04-28 16:37 | 4.78159 | -74.50222 | 11999 ft | 278 kts | 72° |
| 2026-04-28 16:37 | 4.78754 | -74.48378 | 11999 ft | 277 kts | 71° |
| 2026-04-28 16:37 | 4.79345 | -74.46559 | 12000 ft | 276 kts | 71° |
| 2026-04-28 16:38 | 4.80542 | -74.42900 | 12000 ft | 274 kts | 71° |
| 2026-04-28 16:38 | 4.81087 | -74.41234 | 12292 ft | 224 kts | 71° |
| 2026-04-28 16:38 | 4.81559 | -74.39785 | 11891 ft | 220 kts | 71° |
| 2026-04-28 16:38 | 4.82018 | -74.38378 | 11971 ft | 198 kts | 71° |
| 2026-04-28 16:39 | 4.82430 | -74.37110 | 11999 ft | 190 kts | 71° |
| 2026-04-28 16:39 | 4.82830 | -74.35859 | 11993 ft | 187 kts | 73° |
| 2026-04-28 16:39 | 4.82908 | -74.34571 | 12013 ft | 184 kts | 94° |
| 2026-04-28 16:39 | 4.82647 | -74.33281 | 12030 ft | 191 kts | 103° |
| 2026-04-28 16:40 | 4.82229 | -74.32012 | 11988 ft | 189 kts | 110° |
| 2026-04-28 16:40 | 4.81686 | -74.30830 | 11967 ft | 188 kts | 117° |
| 2026-04-28 16:40 | 4.80999 | -74.29707 | 11795 ft | 194 kts | 123° |
| 2026-04-28 16:40 | 4.80163 | -74.28616 | 11523 ft | 201 kts | 129° |
| 2026-04-28 16:41 | 4.79220 | -74.27541 | 11188 ft | 207 kts | 131° |
| 2026-04-28 16:41 | 4.78250 | -74.26469 | 10825 ft | 200 kts | 131° |
| 2026-04-28 16:41 | 4.77389 | -74.25459 | 10429 ft | 184 kts | 129° |
| 2026-04-28 16:41 | 4.76633 | -74.24482 | 10218 ft | 163 kts | 127° |
| 2026-04-28 16:42 | 4.76036 | -74.23645 | 10141 ft | 142 kts | 125° |
| 2026-04-28 16:42 | 4.75452 | -74.22824 | 9909 ft | 146 kts | 126° |
| 2026-04-28 16:42 | 4.74856 | -74.22007 | 9679 ft | 147 kts | 126° |
| 2026-04-28 16:42 | 4.74244 | -74.21188 | 9452 ft | 146 kts | 127° |
| 2026-04-28 16:43 | 4.73633 | -74.20379 | 9244 ft | 145 kts | 127° |
| 2026-04-28 16:43 | 4.73021 | -74.19568 | 9066 ft | 144 kts | 127° |
| 2026-04-28 16:43 | 4.72421 | -74.18770 | 8882 ft | 144 kts | 127° |
| 2026-04-28 16:43 | 4.71818 | -74.17966 | 8693 ft | 143 kts | 127° |
| 2026-04-28 16:44 | 4.71221 | -74.17170 | 8497 ft | 143 kts | 127° |
| 2026-04-28 16:44 | 4.70665 | -74.16428 | 8377 ft | 113 kts | 127° |
| 2026-04-28 16:44 | 4.70275 | -74.15908 | 8365 ft | 63 kts | 127° |
| 2026-04-28 16:44 | 4.70161 | -74.15750 | 8365 ft | 15 kts | 126° |
| 2026-04-28 16:45 | 4.70088 | -74.15649 | 8365 ft | 22 kts | 125° |
| 2026-04-28 16:45 | 4.70054 | -74.15535 | 8365 ft | 17 kts | 34° |
| 2026-04-28 16:45 | 4.70177 | -74.15451 | 8365 ft | 22 kts | 41° |
| 2026-04-28 16:45 | 4.70205 | -74.15365 | 8365 ft | 13 kts | 112° |
| 2026-04-28 16:46 | 4.70106 | -74.15291 | 8365 ft | 22 kts | 155° |
| 2026-04-28 16:46 | 4.70012 | -74.15197 | 8365 ft | 22 kts | 130° |
| 2026-04-28 16:46 | 4.69901 | -74.15048 | 8365 ft | 34 kts | 128° |
| 2026-04-28 16:46 | 4.69826 | -74.14950 | 8365 ft | 21 kts | 126° |
| 2026-04-28 16:47 | 4.69845 | -74.14861 | 8365 ft | 11 kts | 27° |
| 2026-04-28 16:47 | 4.69892 | -74.14776 | 8365 ft | 15 kts | 112° |
| 2026-04-28 16:47 | 4.69830 | -74.14699 | 8365 ft | 5 kts | 143° |
| 2026-04-28 16:47 | 4.69803 | -74.14711 | 8365 ft | 6 kts | 224° |
| 2026-04-28 16:48 | 4.69789 | -74.14722 | 8365 ft | 0 kts | 217° |